SPLAW EPDE-EPDE
Flight info
| Callsign | SPLAW |
|---|---|
| Flight time | 0h 2m |
| Altitude | 1500 |
| Route | EPDEN EPDEB EPDEM EPDEM EPDEB EPDEN |
| Aircraft | R44/M-VGD/C |
Departure
| Time | 2026-04-20 08:52 |
|---|---|
| Airport | Deblin Military Air Base (EPDE) |
Arrival
| Time | 2026-04-20 08:54 |
|---|---|
| Airport | Deblin Military Air Base (EPDE) |
| Time | Latitude | Longitude | Altitude | Speed | Heading |
|---|---|---|---|---|---|
| 2026-04-20 08:45 | 51.55578 | 21.86868 | 379 ft | 0 kts | 195° |
| 2026-04-20 08:48 | 51.55579 | 21.86872 | 379 ft | 0 kts | 102° |
| 2026-04-20 08:49 | 51.55583 | 21.86871 | 394 ft | 3 kts | 71° |
| 2026-04-20 08:50 | 51.55612 | 21.86830 | 486 ft | 17 kts | 7° |
| 2026-04-20 08:50 | 51.55841 | 21.86858 | 529 ft | 43 kts | 42° |
| 2026-04-20 08:50 | 51.55871 | 21.87334 | 595 ft | 55 kts | 107° |
| 2026-04-20 08:50 | 51.55678 | 21.87952 | 535 ft | 61 kts | 107° |
| 2026-04-20 08:51 | 51.55565 | 21.88295 | 414 ft | 12 kts | 104° |
| 2026-04-20 08:51 | 51.55516 | 21.88412 | 421 ft | 39 kts | 115° |
| 2026-04-20 08:51 | 51.55326 | 21.88965 | 530 ft | 61 kts | 108° |
| 2026-04-20 08:51 | 51.55117 | 21.89550 | 645 ft | 63 kts | 115° |
| 2026-04-20 08:52 | 51.54874 | 21.90148 | 722 ft | 67 kts | 118° |
| 2026-04-20 08:52 | 51.54616 | 21.90791 | 733 ft | 76 kts | 128° |
| 2026-04-20 08:52 | 51.54113 | 21.90667 | 903 ft | 86 kts | 225° |
| 2026-04-20 08:52 | 51.53993 | 21.89766 | 1108 ft | 86 kts | 288° |
| 2026-04-20 08:53 | 51.54204 | 21.88811 | 1202 ft | 97 kts | 299° |
| 2026-04-20 08:53 | 51.54507 | 21.87792 | 1307 ft | 103 kts | 300° |
| 2026-04-20 08:53 | 51.54818 | 21.86742 | 1289 ft | 105 kts | 304° |
| 2026-04-20 08:53 | 51.55350 | 21.86243 | 1099 ft | 82 kts | 14° |
| 2026-04-20 08:54 | 51.55849 | 21.86600 | 892 ft | 76 kts | 40° |
| 2026-04-20 08:54 | 51.55937 | 21.87226 | 659 ft | 60 kts | 108° |
| 2026-04-20 08:54 | 51.55735 | 21.87830 | 579 ft | 53 kts | 107° |
| 2026-04-20 08:54 | 51.55609 | 21.88176 | 484 ft | 24 kts | 104° |
| 2026-04-20 08:55 | 51.55574 | 21.88268 | 399 ft | 3 kts | 109° |
| 2026-04-20 08:55 | 51.55572 | 21.88276 | 379 ft | 0 kts | 119° |
| 2026-04-20 08:55 | 51.55552 | 21.88329 | 414 ft | 27 kts | 112° |
| 2026-04-20 08:55 | 51.55404 | 21.88698 | 628 ft | 43 kts | 119° |
| 2026-04-20 08:56 | 51.55237 | 21.89172 | 727 ft | 58 kts | 115° |
| 2026-04-20 08:56 | 51.55018 | 21.89781 | 782 ft | 67 kts | 112° |
| 2026-04-20 08:56 | 51.54773 | 21.90471 | 815 ft | 73 kts | 115° |
| 2026-04-20 08:56 | 51.54801 | 21.91164 | 909 ft | 77 kts | 45° |
| 2026-04-20 08:57 | 51.55326 | 21.91552 | 950 ft | 83 kts | 27° |
| 2026-04-20 08:57 | 51.55905 | 21.91801 | 973 ft | 90 kts | 21° |
| 2026-04-20 08:57 | 51.56530 | 21.91970 | 986 ft | 88 kts | 14° |
| 2026-04-20 08:57 | 51.57143 | 21.92009 | 1035 ft | 93 kts | 7° |
| 2026-04-20 08:58 | 51.57759 | 21.92065 | 1191 ft | 82 kts | 25° |
| 2026-04-20 08:58 | 51.58142 | 21.92583 | 1397 ft | 69 kts | 60° |
| 2026-04-20 08:58 | 51.58396 | 21.93307 | 1433 ft | 78 kts | 63° |
| 2026-04-20 08:58 | 51.58535 | 21.94155 | 1479 ft | 81 kts | 93° |
| 2026-04-20 08:59 | 51.58458 | 21.95064 | 1508 ft | 83 kts | 95° |
| 2026-04-20 08:59 | 51.58376 | 21.95998 | 1514 ft | 86 kts | 95° |
| 2026-04-20 08:59 | 51.58251 | 21.96936 | 1538 ft | 86 kts | 98° |
| 2026-04-20 08:59 | 51.58121 | 21.97887 | 1511 ft | 87 kts | 95° |
| 2026-04-20 09:00 | 51.58034 | 21.98864 | 1456 ft | 89 kts | 94° |
| 2026-04-20 09:00 | 51.57945 | 21.99821 | 1488 ft | 87 kts | 96° |
| 2026-04-20 09:00 | 51.57835 | 22.00798 | 1477 ft | 89 kts | 96° |
| 2026-04-20 09:00 | 51.57721 | 22.01767 | 1518 ft | 87 kts | 97° |
| 2026-04-20 09:01 | 51.57606 | 22.02710 | 1596 ft | 83 kts | 98° |
| 2026-04-20 09:01 | 51.57514 | 22.03677 | 1515 ft | 90 kts | 90° |
| 2026-04-20 09:01 | 51.57475 | 22.04700 | 1462 ft | 93 kts | 88° |
| 2026-04-20 09:01 | 51.57448 | 22.05701 | 1482 ft | 88 kts | 89° |
| 2026-04-20 09:02 | 51.57421 | 22.06666 | 1501 ft | 85 kts | 87° |
| 2026-04-20 09:02 | 51.57320 | 22.07583 | 1565 ft | 83 kts | 105° |
| 2026-04-20 09:02 | 51.57099 | 22.08385 | 1673 ft | 76 kts | 106° |
| 2026-04-20 09:02 | 51.56879 | 22.09152 | 1735 ft | 78 kts | 103° |
| 2026-04-20 09:03 | 51.56776 | 22.10068 | 1615 ft | 90 kts | 89° |
| 2026-04-20 09:03 | 51.56816 | 22.11085 | 1548 ft | 92 kts | 81° |
| 2026-04-20 09:03 | 51.56890 | 22.12112 | 1577 ft | 91 kts | 83° |
| 2026-04-20 09:03 | 51.56863 | 22.13101 | 1665 ft | 89 kts | 91° |
| 2026-04-20 09:04 | 51.56731 | 22.14082 | 1682 ft | 94 kts | 106° |
| 2026-04-20 09:04 | 51.56458 | 22.15040 | 1678 ft | 95 kts | 107° |
| 2026-04-20 09:04 | 51.56182 | 22.16034 | 1612 ft | 100 kts | 107° |
| 2026-04-20 09:04 | 51.55884 | 22.17051 | 1527 ft | 101 kts | 107° |
| 2026-04-20 09:05 | 51.55608 | 22.18055 | 1480 ft | 97 kts | 107° |
| 2026-04-20 09:05 | 51.55342 | 22.19012 | 1486 ft | 91 kts | 107° |
| 2026-04-20 09:05 | 51.55081 | 22.19929 | 1493 ft | 89 kts | 107° |
| 2026-04-20 09:05 | 51.54815 | 22.20816 | 1449 ft | 91 kts | 108° |
| 2026-04-20 09:06 | 51.54569 | 22.21764 | 1417 ft | 94 kts | 105° |
| 2026-04-20 09:06 | 51.54323 | 22.22722 | 1515 ft | 88 kts | 105° |
| 2026-04-20 09:06 | 51.54093 | 22.23593 | 1660 ft | 79 kts | 106° |
| 2026-04-20 09:06 | 51.53851 | 22.24425 | 1627 ft | 88 kts | 107° |
| 2026-04-20 09:07 | 51.53587 | 22.25326 | 1567 ft | 92 kts | 108° |
| 2026-04-20 09:07 | 51.53335 | 22.26290 | 1513 ft | 93 kts | 105° |
| 2026-04-20 09:07 | 51.53179 | 22.27328 | 1458 ft | 95 kts | 95° |
| 2026-04-20 09:07 | 51.53078 | 22.28349 | 1503 ft | 88 kts | 103° |
| 2026-04-20 09:08 | 51.52879 | 22.29258 | 1577 ft | 84 kts | 106° |
| 2026-04-20 09:08 | 51.52624 | 22.30122 | 1628 ft | 87 kts | 110° |
| 2026-04-20 09:08 | 51.52283 | 22.30876 | 1841 ft | 76 kts | 128° |
| 2026-04-20 09:08 | 51.51759 | 22.31214 | 1931 ft | 92 kts | 152° |
| 2026-04-20 09:09 | 51.51083 | 22.31300 | 2062 ft | 95 kts | 172° |
| 2026-04-20 09:09 | 51.50416 | 22.31030 | 2142 ft | 110 kts | 188° |
| 2026-04-20 09:09 | 51.49662 | 22.30634 | 2086 ft | 102 kts | 179° |
| 2026-04-20 09:09 | 51.49186 | 22.30398 | 2104 ft | 48 kts | 177° |
| 2026-04-20 09:10 | 51.48972 | 22.30235 | 2111 ft | 23 kts | 181° |
| 2026-04-20 09:10 | 51.48743 | 22.30086 | 2038 ft | 73 kts | 180° |
| 2026-04-20 09:10 | 51.48118 | 22.29708 | 1916 ft | 111 kts | 194° |
| 2026-04-20 09:10 | 51.47444 | 22.29053 | 1960 ft | 109 kts | 207° |
| 2026-04-20 09:11 | 51.46913 | 22.28209 | 2030 ft | 111 kts | 216° |
| 2026-04-20 09:11 | 51.46230 | 22.27607 | 1975 ft | 103 kts | 181° |
| 2026-04-20 09:11 | 51.45516 | 22.27401 | 1008 ft | 107 kts | 167° |
| 2026-04-20 09:11 | 51.45041 | 22.27649 | 676 ft | 52 kts | 108° |
| 2026-04-20 09:12 | 51.44996 | 22.27864 | 638 ft | 33 kts | 137° |
| 2026-04-20 09:12 | 51.44668 | 22.28080 | 771 ft | 49 kts | 148° |
| 2026-04-20 09:12 | 51.44350 | 22.28126 | 999 ft | 44 kts | 179° |
| 2026-04-20 09:12 | 51.44016 | 22.27707 | 1153 ft | 70 kts | 224° |
| 2026-04-20 09:13 | 51.43772 | 22.27000 | 1356 ft | 79 kts | 253° |
| 2026-04-20 09:13 | 51.43715 | 22.26045 | 1474 ft | 93 kts | 270° |
| 2026-04-20 09:13 | 51.43662 | 22.24949 | 1555 ft | 103 kts | 264° |
| 2026-04-20 09:13 | 51.43642 | 22.23772 | 1642 ft | 105 kts | 263° |
| 2026-04-20 09:14 | 51.43428 | 22.22729 | 1860 ft | 98 kts | 239° |
| 2026-04-20 09:14 | 51.43131 | 22.21680 | 1914 ft | 112 kts | 241° |
| 2026-04-20 09:14 | 51.42671 | 22.20603 | 1840 ft | 122 kts | 220° |
| 2026-04-20 09:14 | 51.42149 | 22.19519 | 1927 ft | 117 kts | 234° |
| 2026-04-20 09:15 | 51.41865 | 22.18494 | 2333 ft | 85 kts | 251° |
| 2026-04-20 09:15 | 51.41831 | 22.17324 | 1374 ft | 121 kts | 270° |
| 2026-04-20 09:15 | 51.41935 | 22.16099 | 876 ft | 96 kts | 296° |
| 2026-04-20 09:15 | 51.42254 | 22.15655 | 644 ft | 32 kts | 12° |
| 2026-04-20 09:16 | 51.42429 | 22.15531 | 731 ft | 51 kts | 351° |
| 2026-04-20 09:16 | 51.42789 | 22.15054 | 878 ft | 77 kts | 317° |
| 2026-04-20 09:16 | 51.42758 | 22.14195 | 960 ft | 90 kts | 221° |
| 2026-04-20 09:16 | 51.42246 | 22.13597 | 986 ft | 85 kts | 200° |
| 2026-04-20 09:17 | 51.41836 | 22.13126 | 1265 ft | 68 kts | 211° |
| 2026-04-20 09:17 | 51.41441 | 22.12674 | 1415 ft | 74 kts | 204° |
| 2026-04-20 09:17 | 51.41032 | 22.12173 | 1600 ft | 75 kts | 215° |
| 2026-04-20 09:17 | 51.40657 | 22.11474 | 1741 ft | 96 kts | 225° |
| 2026-04-20 09:18 | 51.40443 | 22.10412 | 1833 ft | 106 kts | 278° |
| 2026-04-20 09:18 | 51.40541 | 22.09285 | 1966 ft | 105 kts | 282° |
| 2026-04-20 09:18 | 51.40638 | 22.08071 | 2023 ft | 115 kts | 278° |
| 2026-04-20 09:18 | 51.40782 | 22.06861 | 2187 ft | 100 kts | 290° |
| 2026-04-20 09:19 | 51.40853 | 22.05635 | 2115 ft | 116 kts | 264° |
| 2026-04-20 09:19 | 51.40636 | 22.04434 | 2117 ft | 112 kts | 220° |
| 2026-04-20 09:19 | 51.40025 | 22.04163 | 2122 ft | 82 kts | 136° |
| 2026-04-20 09:19 | 51.39827 | 22.04949 | 1978 ft | 82 kts | 85° |
| 2026-04-20 09:20 | 51.40070 | 22.05808 | 1825 ft | 91 kts | 40° |
| 2026-04-20 09:20 | 51.40725 | 22.05774 | 1747 ft | 100 kts | 327° |
| 2026-04-20 09:20 | 51.41001 | 22.04734 | 1715 ft | 111 kts | 282° |
| 2026-04-20 09:20 | 51.41066 | 22.03436 | 1486 ft | 120 kts | 272° |
| 2026-04-20 09:21 | 51.41118 | 22.02222 | 1608 ft | 97 kts | 278° |
| 2026-04-20 09:21 | 51.41116 | 22.01110 | 1539 ft | 109 kts | 257° |
| 2026-04-20 09:21 | 51.40834 | 21.99932 | 1414 ft | 113 kts | 238° |
| 2026-04-20 09:21 | 51.40501 | 21.98802 | 1378 ft | 102 kts | 245° |
| 2026-04-20 09:22 | 51.40269 | 21.97870 | 1550 ft | 78 kts | 242° |
| 2026-04-20 09:22 | 51.40000 | 21.97070 | 964 ft | 99 kts | 240° |
| 2026-04-20 09:22 | 51.40047 | 21.96334 | 581 ft | 38 kts | 332° |
| 2026-04-20 09:22 | 51.40090 | 21.96106 | 601 ft | 31 kts | 288° |
| 2026-04-20 09:23 | 51.40158 | 21.95689 | 831 ft | 47 kts | 309° |
| 2026-04-20 09:23 | 51.40228 | 21.95499 | 920 ft | 31 kts | 339° |
| 2026-04-20 09:23 | 51.40371 | 21.95453 | 925 ft | 37 kts | 12° |
| 2026-04-20 09:23 | 51.40725 | 21.95552 | 965 ft | 59 kts | 13° |
| 2026-04-20 09:24 | 51.40907 | 21.96029 | 1089 ft | 62 kts | 100° |
| 2026-04-20 09:24 | 51.40520 | 21.96303 | 1299 ft | 69 kts | 184° |
| 2026-04-20 09:24 | 51.40145 | 21.95705 | 1407 ft | 89 kts | 243° |
| 2026-04-20 09:24 | 51.40232 | 21.94786 | 1445 ft | 92 kts | 315° |
| 2026-04-20 09:25 | 51.40604 | 21.93909 | 1523 ft | 91 kts | 312° |
| 2026-04-20 09:25 | 51.41063 | 21.93262 | 1592 ft | 92 kts | 344° |
| 2026-04-20 09:25 | 51.41686 | 21.92947 | 1572 ft | 100 kts | 357° |
| 2026-04-20 09:25 | 51.42382 | 21.92655 | 1501 ft | 105 kts | 350° |
| 2026-04-20 09:26 | 51.43061 | 21.92273 | 1527 ft | 99 kts | 349° |
| 2026-04-20 09:26 | 51.43699 | 21.91872 | 1522 ft | 101 kts | 346° |
| 2026-04-20 09:26 | 51.44326 | 21.91501 | 1561 ft | 96 kts | 352° |
| 2026-04-20 09:26 | 51.44995 | 21.91207 | 1474 ft | 102 kts | 355° |
| 2026-04-20 09:27 | 51.45664 | 21.91063 | 1546 ft | 93 kts | 7° |
| 2026-04-20 09:27 | 51.46299 | 21.91111 | 1562 ft | 93 kts | 15° |
| 2026-04-20 09:27 | 51.46944 | 21.91228 | 1489 ft | 97 kts | 11° |
| 2026-04-20 09:27 | 51.47599 | 21.91208 | 1495 ft | 95 kts | 2° |
| 2026-04-20 09:28 | 51.48245 | 21.90895 | 1514 ft | 103 kts | 341° |
| 2026-04-20 09:28 | 51.48864 | 21.90280 | 1536 ft | 105 kts | 334° |
| 2026-04-20 09:28 | 51.49514 | 21.89673 | 1466 ft | 110 kts | 339° |
| 2026-04-20 09:28 | 51.50172 | 21.89141 | 1487 ft | 108 kts | 341° |
| 2026-04-20 09:29 | 51.50842 | 21.88596 | 1464 ft | 109 kts | 340° |
| 2026-04-20 09:29 | 51.51479 | 21.87940 | 1435 ft | 111 kts | 333° |
| 2026-04-20 09:29 | 51.52044 | 21.87143 | 1486 ft | 108 kts | 322° |
| 2026-04-20 09:29 | 51.52660 | 21.86770 | 1471 ft | 94 kts | 17° |
| 2026-04-20 09:30 | 51.53286 | 21.87104 | 1357 ft | 94 kts | 24° |
| 2026-04-20 09:30 | 51.53935 | 21.86937 | 1422 ft | 102 kts | 334° |
| 2026-04-20 09:30 | 51.54472 | 21.86169 | 1513 ft | 105 kts | 323° |
| 2026-04-20 09:30 | 51.55080 | 21.85681 | 1483 ft | 97 kts | 14° |
| 2026-04-20 09:31 | 51.55641 | 21.86071 | 1513 ft | 83 kts | 38° |
| 2026-04-20 09:31 | 51.56025 | 21.86710 | 757 ft | 73 kts | 75° |
| 2026-04-20 09:31 | 51.55915 | 21.87337 | 542 ft | 59 kts | 110° |
| 2026-04-20 09:31 | 51.55718 | 21.87864 | 478 ft | 55 kts | 109° |
| 2026-04-20 09:32 | 51.55560 | 21.88318 | 434 ft | 20 kts | 91° |
| 2026-04-20 09:32 | 51.55529 | 21.88371 | 402 ft | 19 kts | 127° |
| 2026-04-20 09:32 | 51.55393 | 21.88777 | 586 ft | 51 kts | 109° |
| 2026-04-20 09:32 | 51.55167 | 21.89350 | 686 ft | 70 kts | 115° |
| 2026-04-20 09:33 | 51.54900 | 21.90035 | 807 ft | 74 kts | 115° |
| 2026-04-20 09:33 | 51.54633 | 21.90777 | 872 ft | 81 kts | 122° |
| 2026-04-20 09:33 | 51.54329 | 21.90295 | 956 ft | 109 kts | 296° |
| 2026-04-20 09:33 | 51.54767 | 21.89325 | 955 ft | 112 kts | 317° |
| 2026-04-20 09:34 | 51.55213 | 21.88258 | 813 ft | 110 kts | 297° |
| 2026-04-20 09:34 | 51.55461 | 21.87437 | 720 ft | 51 kts | 312° |
| 2026-04-20 09:34 | 51.55582 | 21.86856 | 432 ft | 8 kts | 83° |
| 2026-04-20 09:35 | 51.55595 | 21.86878 | 379 ft | 0 kts | 16° |